Time;durP1;ratioP1;P1;durP2;ratioP2;P2;SDS_P1;SDS_P2;PMS_P1;PMS_P2;Temp;Humidity;BMP_temperature;BMP_pressure;BME280_temperature;BME280_humidity;BME280_pressure;Samples;Min_cycle;Max_cycle;Signal;HPM_P1;HPM_P2
2021/01/05 00:00:13;;;;;;;37.33;14.53;;;;;;;-1.24;100.00;99859.48;1704337;82;23675;-79
2021/01/05 00:02:41;;;;;;;40.05;15.72;;;;;;;-1.27;100.00;99857.26;1704420;84;21199;-79
2021/01/05 00:05:12;;;;;;;41.20;14.30;;;;;;;-1.31;100.00;99864.98;1704943;84;20968;-79
2021/01/05 00:07:39;;;;;;;39.08;14.90;;;;;;;-1.31;100.00;99870.89;1718957;82;20987;-79
2021/01/05 00:10:09;;;;;;;50.95;18.45;;;;;;;-1.31;100.00;99873.58;1734233;82;21468;-79
2021/01/05 00:12:36;;;;;;;40.48;15.03;;;;;;;-1.31;100.00;99871.71;1675762;85;22152;-80
2021/01/05 00:15:06;;;;;;;47.73;16.62;;;;;;;-1.28;100.00;99869.91;1691143;84;21042;-79
2021/01/05 00:17:34;;;;;;;35.68;14.83;;;;;;;-1.25;100.00;99861.36;1676823;84;21634;-83
2021/01/05 00:20:09;;;;;;;40.00;15.20;;;;;;;-1.24;100.00;99860.84;1704939;84;21090;-82
2021/01/05 00:22:36;;;;;;;34.13;13.83;;;;;;;-1.27;100.00;99858.08;1704982;83;21081;-82
2021/01/05 00:25:07;;;;;;;36.85;14.58;;;;;;;-1.29;100.00;99864.75;1704914;84;21160;-83
2021/01/05 00:27:35;;;;;;;85.40;17.32;;;;;;;-1.33;100.00;99860.34;1705030;84;21564;-82
2021/01/05 00:30:09;;;;;;;38.58;16.35;;;;;;;-1.36;100.00;99868.36;1675155;85;21582;-83
2021/01/05 00:32:39;;;;;;;36.15;14.50;;;;;;;-1.41;100.00;99869.58;1704190;84;21558;-82
2021/01/05 00:35:08;;;;;;;38.28;15.43;;;;;;;-1.43;100.00;99862.77;1683442;84;21061;-83
2021/01/05 00:37:36;;;;;;;39.78;15.23;;;;;;;-1.48;100.00;99864.81;1718568;82;21388;-83
2021/01/05 00:40:06;;;;;;;37.50;15.93;;;;;;;-1.51;100.00;99865.27;1734146;82;21146;-83
2021/01/05 00:42:34;;;;;;;49.73;16.30;;;;;;;-1.53;100.00;99860.64;1734232;82;21018;-83
2021/01/05 00:45:05;;;;;;;46.08;16.50;;;;;;;-1.57;100.00;99854.06;1734296;82;21507;-83
2021/01/05 00:47:36;;;;;;;42.67;17.73;;;;;;;-1.60;100.00;99849.14;1737280;82;21139;-82
2021/01/05 00:50:05;;;;;;;34.15;14.90;;;;;;;-1.59;100.00;99845.40;1738913;82;21265;-83
2021/01/05 00:52:33;;;;;;;46.75;18.37;;;;;;;-1.60;100.00;99845.09;1738959;82;21590;-84
2021/01/05 00:55:01;;;;;;;47.53;18.35;;;;;;;-1.59;100.00;99842.70;1678952;85;21081;-83
2021/01/05 00:57:29;;;;;;;47.38;17.67;;;;;;;-1.58;100.00;99833.58;1707398;84;21075;-82
2021/01/05 00:59:56;;;;;;;46.30;19.42;;;;;;;-1.54;100.00;99839.33;1702467;84;21088;-82
2021/01/05 01:02:25;;;;;;;45.28;17.40;;;;;;;-1.55;100.00;99845.23;1707433;84;21265;-82
2021/01/05 01:04:52;;;;;;;53.92;18.55;;;;;;;-1.57;100.00;99845.17;1707370;84;21037;-82
2021/01/05 01:07:20;;;;;;;38.98;17.15;;;;;;;-1.59;100.00;99848.61;1702353;84;20953;-82
2021/01/05 01:09:48;;;;;;;42.45;17.98;;;;;;;-1.59;100.00;99844.58;1707369;84;21090;-82
2021/01/05 01:12:22;;;;;;;55.35;19.62;;;;;;;-1.58;100.00;99841.66;1738956;82;21072;-80
2021/01/05 01:14:53;;;;;;;34.35;12.82;;;;;;;-1.56;100.00;99840.08;1738931;82;22353;-80
2021/01/05 01:17:23;;;;;;;33.98;15.68;;;;;;;-1.58;100.00;99842.18;1713691;82;21074;-81
2021/01/05 01:19:51;;;;;;;37.40;17.05;;;;;;;-1.61;100.00;99843.45;1680503;85;21116;-80
2021/01/05 01:22:22;;;;;;;46.73;16.93;;;;;;;-1.60;100.00;99841.59;1707494;84;21238;-79
2021/01/05 01:24:51;;;;;;;40.98;15.80;;;;;;;-1.58;100.00;99840.83;1707432;84;21086;-74
2021/01/05 01:27:21;;;;;;;40.28;16.05;;;;;;;-1.61;100.00;99841.29;1738181;82;21405;-75
2021/01/05 01:29:49;;;;;;;45.67;17.05;;;;;;;-1.62;100.00;99838.30;1738868;82;21089;-78
2021/01/05 01:32:17;;;;;;;39.50;15.70;;;;;;;-1.63;100.00;99840.70;1738923;82;20943;-78
2021/01/05 01:34:46;;;;;;;43.95;17.37;;;;;;;-1.66;100.00;99837.41;1678664;85;21136;-78
2021/01/05 01:37:19;;;;;;;35.15;15.00;;;;;;;-1.68;100.00;99831.97;1678991;85;21120;-79
2021/01/05 01:39:48;;;;;;;45.40;17.57;;;;;;;-1.69;100.00;99829.80;1680543;85;21393;-78
2021/01/05 01:42:19;;;;;;;51.25;18.45;;;;;;;-1.67;100.00;99830.91;1680150;85;21356;-78
2021/01/05 01:44:48;;;;;;;46.90;16.00;;;;;;;-1.64;100.00;99829.11;1707420;84;20975;-78
2021/01/05 01:47:26;;;;;;;48.33;18.75;;;;;;;-1.60;100.00;99829.47;1706194;84;21114;-77
2021/01/05 01:50:10;;;;;;;50.45;18.37;;;;;;;-1.57;100.00;99820.94;1676329;85;21595;-80
2021/01/05 01:53:26;;;;;;;58.08;18.48;;;;;;;-1.57;100.00;99820.41;1677743;85;21387;-80
2021/01/05 01:56:19;;;;;;;66.12;18.90;;;;;;;-1.59;100.00;99824.38;1704332;84;21117;-80
2021/01/05 01:58:58;;;;;;;75.95;23.92;;;;;;;-1.65;100.00;99820.73;1621802;88;21142;-80
2021/01/05 02:01:48;;;;;;;82.25;25.82;;;;;;;-1.63;100.00;99821.33;1666482;85;20922;-80
2021/01/05 02:04:31;;;;;;;91.95;31.05;;;;;;;-1.58;100.00;99805.84;1676118;85;21100;-80
2021/01/05 02:07:17;;;;;;;;;;;;;;;-1.57;100.00;99798.88;1707872;84;21255;-79
2021/01/05 02:10:18;;;;;;;92.65;29.07;;;;;;;-1.57;100.00;99810.17;1706155;84;20587;-79
2021/01/05 02:13:03;;;;;;;91.05;28.05;;;;;;;-1.59;100.00;99803.67;1679155;84;21579;-79
2021/01/05 02:16:01;;;;;;;83.82;26.70;;;;;;;-1.55;100.00;99799.47;1706285;84;20962;-80
2021/01/05 02:18:59;;;;;;;79.87;23.38;;;;;;;-1.54;100.00;99801.63;1706219;84;20946;-80
2021/01/05 02:21:31;;;;;;;80.10;24.87;;;;;;;-1.58;100.00;99801.80;1706308;84;21437;-81
2021/01/05 02:24:10;;;;;;;74.92;26.37;;;;;;;-1.63;100.00;99798.97;1706344;84;20982;-81
2021/01/05 02:27:02;;;;;;;84.52;28.65;;;;;;;-1.62;100.00;99792.54;1683816;84;21516;-77
2021/01/05 02:29:41;;;;;;;80.60;26.80;;;;;;;-1.63;100.00;99784.98;1706258;84;20966;-78
2021/01/05 02:32:25;;;;;;;77.75;22.95;;;;;;;-1.64;100.00;99784.69;1706333;84;21069;-79
2021/01/05 02:35:35;;;;;;;79.30;25.08;;;;;;;-1.62;100.00;99775.04;1705768;84;22242;-76
2021/01/05 02:38:56;;;;;;;67.45;22.25;;;;;;;-1.62;100.00;99775.04;1666001;84;21231;-78
2021/01/05 02:42:08;;;;;;;78.40;24.10;;;;;;;-1.64;100.00;99766.38;1682589;84;21096;-79
2021/01/05 02:45:18;;;;;;;65.65;21.82;;;;;;;-1.68;100.00;99767.36;1679067;84;21065;-79
2021/01/05 02:48:36;;;;;;;75.92;23.85;;;;;;;-1.68;100.00;99766.84;1677764;85;21585;-79
2021/01/05 02:51:58;;;;;;;67.67;22.37;;;;;;;-1.67;100.00;99755.55;1677826;85;21226;-79
2021/01/05 02:55:24;;;;;;;79.22;24.37;;;;;;;-1.69;100.00;99764.37;1677877;85;21165;-78
2021/01/05 02:58:57;;;;;;;71.70;23.32;;;;;;;-1.68;100.00;99762.80;1650045;87;21066;-78
2021/01/05 03:02:25;;;;;;;76.00;24.10;;;;;;;-1.67;100.00;99760.92;1678033;85;21596;-79
2021/01/05 03:05:11;;;;;;;63.30;20.27;;;;;;;-1.67;100.00;99760.40;1676413;85;21066;-79
2021/01/05 03:07:57;;;;;;;72.05;21.75;;;;;;;-1.63;100.00;99755.38;1677200;85;21524;-79
2021/01/05 03:10:54;;;;;;;69.03;21.52;;;;;;;-1.67;100.00;99751.50;1678756;84;21015;-78
2021/01/05 03:13:54;;;;;;;71.28;21.90;;;;;;;-1.73;100.00;99751.91;1682289;84;21041;-77
2021/01/05 03:16:42;;;;;;;61.48;23.42;;;;;;;-1.75;100.00;99747.30;1859763;75;27781;-77
2021/01/05 03:19:45;;;;;;;62.40;18.52;;;;;;;-1.75;100.00;99741.10;1875416;76;20923;-76
2021/01/05 03:22:35;;;;;;;60.92;20.15;;;;;;;-1.70;100.00;99736.63;1830576;78;21792;-76
2021/01/05 03:25:22;;;;;;;61.98;19.70;;;;;;;-1.78;100.00;99746.94;1802501;78;20910;-77
2021/01/05 03:28:11;;;;;;;64.97;20.23;;;;;;;-1.86;100.00;99741.89;1782934;79;20891;-78
2021/01/05 03:31:08;;;;;;;58.55;20.80;;;;;;;-1.88;100.00;99729.19;1761878;79;20931;-78
2021/01/05 03:33:59;;;;;;;76.20;21.27;;;;;;;-1.90;100.00;99730.77;1797914;79;20969;-80
2021/01/05 03:36:45;;;;;;;61.10;19.98;;;;;;;-1.92;100.00;99730.17;1797895;79;21255;-80
2021/01/05 03:39:32;;;;;;;64.32;20.32;;;;;;;-1.90;100.00;99726.73;1797873;79;20977;-79
2021/01/05 03:42:18;;;;;;;73.33;23.52;;;;;;;-1.88;100.00;99727.84;1797928;79;20894;-80
2021/01/05 03:45:06;;;;;;;75.05;22.70;;;;;;;-1.88;100.00;99727.84;1797898;79;21012;-79
2021/01/05 03:47:52;;;;;;;61.33;21.00;;;;;;;-1.86;100.00;99723.05;1797888;79;21005;-79
2021/01/05 03:50:38;;;;;;;61.42;19.62;;;;;;;-1.83;100.00;99717.21;1797901;79;20988;-78
2021/01/05 03:53:24;;;;;;;66.15;21.65;;;;;;;-1.80;100.00;99715.41;1797852;79;21552;-77
2021/01/05 03:56:10;;;;;;;48.92;17.30;;;;;;;-1.77;100.00;99713.59;1797782;79;21905;-75
2021/01/05 03:58:56;;;;;;;46.58;18.52;;;;;;;-1.77;100.00;99721.14;1797871;79;20938;-76
2021/01/05 04:01:53;;;;;;;44.83;18.00;;;;;;;-1.75;100.00;99711.50;1777164;78;20997;-81
2021/01/05 04:04:21;;;;;;;42.23;16.55;;;;;;;-1.75;100.00;99704.77;1808701;79;23427;-81
2021/01/05 04:06:49;;;;;;;51.13;17.82;;;;;;;-1.73;100.00;99712.05;1808526;79;20952;-81
2021/01/05 04:09:17;;;;;;;47.20;16.32;;;;;;;-1.75;100.00;99711.50;1808569;79;21477;-81
2021/01/05 04:11:45;;;;;;;47.20;18.10;;;;;;;-1.75;100.00;99708.80;1808605;79;20932;-80
2021/01/05 04:14:12;;;;;;;51.85;17.67;;;;;;;-1.75;100.00;99715.53;1808594;78;21156;-79
2021/01/05 04:16:40;;;;;;;60.45;20.80;;;;;;;-1.74;100.00;99714.48;1808411;79;21140;-82
2021/01/05 04:19:08;;;;;;;48.58;17.73;;;;;;;-1.74;100.00;99713.95;1808522;78;20932;-81
2021/01/05 04:21:35;;;;;;;61.35;20.80;;;;;;;-1.74;100.00;99707.75;1778263;78;21038;-80
2021/01/05 04:24:04;;;;;;;74.58;22.25;;;;;;;-1.77;100.00;99706.87;1754667;81;21573;-81
2021/01/05 04:26:35;;;;;;;63.33;21.33;;;;;;;-1.75;100.00;99716.88;1725751;81;21547;-80
2021/01/05 04:29:03;;;;;;;61.02;19.75;;;;;;;-1.74;100.00;99721.20;1705793;83;21570;-82
2021/01/05 04:31:38;;;;;;;56.98;20.27;;;;;;;-1.73;100.00;99730.37;1705664;84;21559;-81
2021/01/05 04:34:06;;;;;;;62.53;21.00;;;;;;;-1.72;100.00;99727.16;1718557;83;21187;-78
2021/01/05 04:36:34;;;;;;;65.78;21.95;;;;;;;-1.71;100.00;99725.58;1712770;83;21000;-73
2021/01/05 04:39:02;;;;;;;57.70;20.02;;;;;;;-1.66;100.00;99722.19;1725924;83;20989;-72
2021/01/05 04:41:31;;;;;;;73.07;22.52;;;;;;;-1.58;100.00;99712.95;1725999;83;21149;-72
2021/01/05 04:43:59;;;;;;;69.85;23.20;;;;;;;-1.60;100.00;99718.57;1725952;83;20941;-72
2021/01/05 04:46:54;;;;;;;84.50;26.12;;;;;;;-1.58;100.00;99719.69;1699842;83;20944;-70
2021/01/05 04:49:55;;;;;;;78.22;25.55;;;;;;;-1.57;100.00;99719.45;1726053;83;21585;-72
2021/01/05 04:52:28;;;;;;;86.05;26.25;;;;;;;-1.61;100.00;99709.38;1685078;83;21003;-72
2021/01/05 04:55:00;;;;;;;99.15;27.37;;;;;;;-1.65;100.00;99718.45;1726012;83;21372;-73
2021/01/05 04:57:30;;;;;;;91.50;25.57;;;;;;;-1.66;100.00;99712.24;1725974;83;20917;-73
2021/01/05 05:00:09;;;;;;;104.78;30.92;;;;;;;-1.64;100.00;99718.74;1726109;83;21464;-73
2021/01/05 05:03:11;;;;;;;98.42;28.50;;;;;;;-1.64;100.00;99708.50;1725651;83;20956;-74
2021/01/05 05:06:23;;;;;;;105.37;30.83;;;;;;;-1.65;100.00;99703.64;1726306;83;21503;-75
2021/01/05 05:09:17;;;;;;;102.30;30.40;;;;;;;-1.68;100.00;99698.20;1743064;81;21605;-73
2021/01/05 05:12:14;;;;;;;119.05;34.58;;;;;;;-1.63;100.00;99694.80;1722866;83;21094;-74
2021/01/05 05:15:08;;;;;;;100.42;30.30;;;;;;;-1.64;100.00;99690.48;1722794;83;21550;-75
2021/01/05 05:18:04;;;;;;;105.30;30.43;;;;;;;-1.63;100.00;99693.98;1722811;83;20945;-73
2021/01/05 05:21:16;;;;;;;109.20;31.15;;;;;;;-1.63;100.00;99697.50;1730136;81;21017;-74
2021/01/05 05:24:12;;;;;;;121.25;32.95;;;;;;;-1.64;100.00;99697.20;1699003;82;21346;-74
2021/01/05 05:26:48;;;;;;;127.72;33.18;;;;;;;-1.63;100.00;99702.06;1730768;82;21088;-74
2021/01/05 05:29:48;;;;;;;111.05;30.97;;;;;;;-1.60;100.00;99702.95;1791025;79;20900;-71
2021/01/05 05:32:31;;;;;;;108.50;32.20;;;;;;;-1.61;100.00;99700.78;1779100;79;21479;-69
2021/01/05 05:35:16;;;;;;;108.07;31.95;;;;;;;-1.63;100.00;99695.34;1807989;79;21471;-72
2021/01/05 05:38:04;;;;;;;97.62;29.55;;;;;;;-1.65;100.00;99684.80;1807960;78;21359;-72
2021/01/05 05:40:55;;;;;;;112.08;30.57;;;;;;;-1.67;100.00;99682.86;1807872;79;20984;-72
2021/01/05 05:44:08;;;;;;;100.70;30.25;;;;;;;-1.70;100.00;99686.02;1807982;79;20980;-73
2021/01/05 05:46:42;;;;;;;;;;;;;;;-1.72;100.00;99687.59;1643356;86;20965;-72
2021/01/05 05:49:42;;;;;;;114.80;29.20;;;;;;;-1.70;100.00;99685.49;1873757;76;22728;-71
2021/01/05 05:52:35;;;;;;;109.65;30.85;;;;;;;-1.74;100.00;99678.15;1841754;77;21557;-69
2021/01/05 05:55:06;;;;;;;100.20;29.00;;;;;;;-1.72;100.00;99682.73;1804247;78;21572;-70
2021/01/05 05:57:46;;;;;;;107.00;36.10;;;;;;;-1.69;100.00;99683.09;1811935;77;20897;-70
2021/01/05 06:00:38;;;;;;;112.95;30.48;;;;;;;-1.67;100.00;99693.63;1841912;78;21300;-71
2021/01/05 06:03:07;;;;;;;91.30;28.07;;;;;;;-1.62;100.00;99689.72;1829402;76;21471;-71
2021/01/05 06:05:36;;;;;;;97.05;31.20;;;;;;;-1.60;100.00;99684.92;1825414;76;20913;-71
2021/01/05 06:08:06;;;;;;;102.67;30.08;;;;;;;-1.58;100.00;99686.85;1811676;78;21412;-71
2021/01/05 06:10:34;;;;;;;108.30;33.90;;;;;;;-1.60;100.00;99684.92;1808645;79;21559;-73
2021/01/05 06:13:03;;;;;;;92.42;29.15;;;;;;;-1.60;100.00;99684.92;1808610;79;20971;-72
2021/01/05 06:15:33;;;;;;;90.90;29.72;;;;;;;-1.61;100.00;99687.32;1808686;79;21590;-70
2021/01/05 06:18:03;;;;;;;92.05;28.00;;;;;;;-1.63;100.00;99684.04;1808695;79;21561;-72
2021/01/05 06:20:30;;;;;;;88.37;28.02;;;;;;;-1.63;100.00;99682.69;1808607;79;21383;-74
2021/01/05 06:22:57;;;;;;;99.70;29.72;;;;;;;-1.65;100.00;99683.45;1808553;79;21046;-74
2021/01/05 06:25:25;;;;;;;103.87;31.68;;;;;;;-1.66;100.00;99684.50;1789010;79;21052;-70
2021/01/05 06:27:53;;;;;;;92.55;29.95;;;;;;;-1.64;100.00;99695.86;1785841;80;21588;-74
2021/01/05 06:30:21;;;;;;;106.35;30.32;;;;;;;-1.61;100.00;99683.28;1785882;80;21099;-72
2021/01/05 06:32:48;;;;;;;89.47;28.38;;;;;;;-1.61;100.00;99691.36;1755409;80;21381;-73
2021/01/05 06:35:19;;;;;;;98.62;30.12;;;;;;;-1.61;100.00;99700.78;1785758;79;21535;-72
2021/01/05 06:37:51;;;;;;;100.42;32.38;;;;;;;-1.61;100.00;99696.74;1785821;79;20941;-73
2021/01/05 06:40:24;;;;;;;103.87;31.85;;;;;;;-1.55;100.00;99700.38;1785942;80;21453;-72
2021/01/05 06:42:52;;;;;;;111.35;32.50;;;;;;;-1.56;100.00;99703.59;1785897;80;20973;-72
2021/01/05 06:45:24;;;;;;;86.02;27.98;;;;;;;-1.58;100.00;99698.15;1785777;79;21458;-73
2021/01/05 06:47:53;;;;;;;95.05;30.32;;;;;;;-1.60;100.00;99698.38;1785581;79;21143;-72
2021/01/05 06:50:23;;;;;;;101.87;30.82;;;;;;;-1.61;100.00;99695.92;1785776;80;21127;-71
2021/01/05 06:52:51;;;;;;;102.27;28.62;;;;;;;-1.61;100.00;99698.09;1785828;80;21546;-73
2021/01/05 06:55:19;;;;;;;89.60;28.20;;;;;;;-1.61;100.00;99698.09;1777502;79;20950;-72
2021/01/05 06:57:46;;;;;;;103.12;32.60;;;;;;;-1.62;100.00;99698.31;1768484;80;22075;-72
2021/01/05 07:00:21;;;;;;;90.28;29.45;;;;;;;-1.60;100.00;99695.69;1754284;81;21476;-72
2021/01/05 07:02:49;;;;;;;99.28;31.68;;;;;;;-1.56;100.00;99704.94;1754179;81;21068;-71
2021/01/05 07:05:17;;;;;;;99.75;31.90;;;;;;;-1.53;100.00;99710.38;1754150;81;20938;-72
2021/01/05 07:07:44;;;;;;;93.92;30.27;;;;;;;-1.50;100.00;99712.09;1754096;81;21052;-74
2021/01/05 07:10:12;;;;;;;94.03;31.73;;;;;;;-1.48;100.00;99708.63;1753797;81;21407;-75
2021/01/05 07:12:39;;;;;;;91.20;28.45;;;;;;;-1.45;100.00;99716.25;1752649;81;21226;-72
2021/01/05 07:15:09;;;;;;;93.37;28.98;;;;;;;-1.46;100.00;99720.52;1753156;81;21088;-72
2021/01/05 07:17:36;;;;;;;93.92;30.27;;;;;;;-1.49;100.00;99720.98;1754243;81;21068;-73
2021/01/05 07:20:06;;;;;;;103.00;32.25;;;;;;;-1.52;100.00;99730.34;1754278;81;21472;-73
2021/01/05 07:22:33;;;;;;;83.70;27.45;;;;;;;-1.52;100.00;99724.14;1755386;79;21371;-74
2021/01/05 07:25:01;;;;;;;96.92;31.45;;;;;;;-1.50;100.00;99727.42;1775044;80;21448;-73
2021/01/05 07:27:29;;;;;;;91.32;31.23;;;;;;;-1.48;100.00;99719.41;1785171;79;20933;-76
2021/01/05 07:29:56;;;;;;;101.85;31.33;;;;;;;-1.43;100.00;99702.55;1757631;80;20898;-74
2021/01/05 07:32:24;;;;;;;91.72;28.55;;;;;;;-1.42;100.00;99694.77;1769082;80;20942;-74
2021/01/05 07:34:52;;;;;;;91.97;29.92;;;;;;;-1.43;100.00;99691.78;1754165;81;21246;-74
2021/01/05 07:37:25;;;;;;;106.52;33.35;;;;;;;-1.43;100.00;99691.25;1754139;81;21618;-74
2021/01/05 07:39:52;;;;;;;100.15;31.42;;;;;;;-1.43;100.00;99677.79;1754280;81;21194;-75
2021/01/05 07:42:29;;;;;;;97.35;29.40;;;;;;;-1.40;100.00;99678.67;1754200;81;21131;-73
2021/01/05 07:44:59;;;;;;;98.20;33.08;;;;;;;-1.37;100.00;99682.77;1754200;81;21049;-73
2021/01/05 07:47:36;;;;;;;103.58;34.73;;;;;;;-1.37;100.00;99678.20;1754146;81;21400;-75
2021/01/05 07:50:07;;;;;;;105.63;33.42;;;;;;;-1.35;100.00;99672.05;1759972;80;21181;-76
2021/01/05 07:52:40;;;;;;;105.03;31.85;;;;;;;-1.30;100.00;99678.08;1783732;79;20933;-76
2021/01/05 07:55:23;;;;;;;114.20;35.28;;;;;;;-1.30;100.00;99677.27;1782073;79;21354;-76
2021/01/05 07:57:51;;;;;;;103.10;31.45;;;;;;;-1.32;100.00;99661.86;1756365;80;21005;-76
2021/01/05 08:00:22;;;;;;;95.00;30.32;;;;;;;-1.34;100.00;99661.57;1744038;81;21251;-75
2021/01/05 08:02:50;;;;;;;79.27;25.52;;;;;;;-1.35;100.00;99673.92;1746966;82;21060;-77
2021/01/05 08:05:19;;;;;;;110.92;33.30;;;;;;;-1.39;100.00;99666.84;1732332;82;20925;-73
2021/01/05 08:07:47;;;;;;;96.78;32.45;;;;;;;-1.38;100.00;99674.39;1728330;83;21026;-73
2021/01/05 08:10:30;;;;;;;93.25;32.25;;;;;;;-1.36;100.00;99687.09;1728365;82;21073;-71
2021/01/05 08:12:57;;;;;;;98.85;32.25;;;;;;;-1.35;100.00;99686.86;1728246;83;21202;-72
2021/01/05 08:15:29;;;;;;;103.72;35.15;;;;;;;-1.34;100.00;99697.11;1747806;82;21520;-74
2021/01/05 08:17:56;;;;;;;111.60;35.20;;;;;;;-1.35;100.00;99703.02;1750685;82;20967;-73
2021/01/05 08:20:30;;;;;;;95.20;27.93;;;;;;;-1.31;100.00;99704.72;1750311;81;21017;-74
2021/01/05 08:22:59;;;;;;;113.75;34.45;;;;;;;-1.34;100.00;99695.23;1750323;82;20957;-74
2021/01/05 08:25:26;;;;;;;104.10;34.13;;;;;;;-1.35;100.00;99694.94;1750385;82;21374;-73
2021/01/05 08:27:54;;;;;;;121.02;34.83;;;;;;;-1.35;100.00;99694.94;1750394;82;21516;-73
2021/01/05 08:30:26;;;;;;;105.00;34.10;;;;;;;-1.34;100.00;99693.07;1750369;81;21037;-73
2021/01/05 08:32:54;;;;;;;;;;;;;;;-1.34;100.00;99688.50;1748129;80;21066;-73
2021/01/05 08:35:23;;;;;;;94.30;32.33;;;;;;;-1.34;100.00;99676.91;1756226;80;20210;-74
2021/01/05 08:37:52;;;;;;;109.40;32.65;;;;;;;-1.33;100.00;99675.86;1733256;81;21388;-74
2021/01/05 08:40:24;;;;;;;108.37;34.13;;;;;;;-1.31;100.00;99667.54;1745215;81;21052;-73
2021/01/05 08:42:52;;;;;;;128.85;39.13;;;;;;;-1.31;100.00;99672.92;1742948;81;21100;-72
2021/01/05 08:45:20;;;;;;;121.15;34.78;;;;;;;-1.32;100.00;99668.59;1737170;81;21172;-74
2021/01/05 08:47:47;;;;;;;112.55;36.55;;;;;;;-1.32;100.00;99667.25;1718300;81;21213;-75
2021/01/05 08:50:21;;;;;;;107.78;35.63;;;;;;;-1.28;100.00;99658.99;1748620;81;21391;-73
2021/01/05 08:52:49;;;;;;;111.37;32.25;;;;;;;-1.26;100.00;99650.15;1732288;82;21048;-75
2021/01/05 08:55:16;;;;;;;109.70;35.43;;;;;;;-1.25;100.00;99636.97;1680226;82;21092;-75
2021/01/05 08:57:44;;;;;;;113.85;33.78;;;;;;;-1.25;100.00;99635.09;1732229;82;20937;-73
2021/01/05 09:00:13;;;;;;;111.50;34.53;;;;;;;-1.23;100.00;99630.82;1732419;82;21555;-76
2021/01/05 09:02:41;;;;;;;115.10;37.38;;;;;;;-1.24;100.00;99632.70;1732101;82;21205;-75
2021/01/05 09:05:10;;;;;;;108.30;34.58;;;;;;;-1.25;100.00;99636.97;1732196;82;20929;-76
2021/01/05 09:07:38;;;;;;;135.03;38.48;;;;;;;-1.27;100.00;99635.86;1732145;82;20945;-76
2021/01/05 09:10:07;;;;;;;116.37;36.03;;;;;;;-1.25;100.00;99626.20;1703204;82;20898;-78
2021/01/05 09:12:35;;;;;;;118.45;35.17;;;;;;;-1.24;100.00;99610.33;1732264;82;21167;-74
2021/01/05 09:15:04;;;;;;;117.55;36.08;;;;;;;-1.25;100.00;99618.12;1732214;82;21375;-77
2021/01/05 09:17:32;;;;;;;121.47;39.03;;;;;;;-1.23;100.00;99605.23;1732148;82;21021;-77
2021/01/05 09:19:59;;;;;;;109.75;33.90;;;;;;;-1.21;100.00;99594.52;1732277;82;21646;-76
2021/01/05 09:22:27;;;;;;;109.10;35.40;;;;;;;-1.20;100.00;99616.88;1732142;82;20945;-75
2021/01/05 09:24:54;;;;;;;114.08;35.60;;;;;;;-1.21;100.00;99595.05;1732383;82;21504;-75
2021/01/05 09:27:22;;;;;;;119.25;38.10;;;;;;;-1.21;100.00;99584.27;1732236;82;21375;-75
2021/01/05 09:29:49;;;;;;;122.17;38.28;;;;;;;-1.17;100.00;99586.77;1732319;82;20931;-77
2021/01/05 09:32:16;;;;;;;120.95;36.85;;;;;;;-1.14;100.00;99605.94;1732367;82;20934;-74
2021/01/05 09:34:44;;;;;;;102.42;35.05;;;;;;;-1.16;100.00;99622.09;1731957;82;21167;-75
2021/01/05 09:37:11;;;;;;;113.03;38.10;;;;;;;-1.16;100.00;99603.23;1732034;82;21144;-75
2021/01/05 09:39:39;;;;;;;100.92;33.18;;;;;;;-1.12;100.00;99616.48;1732418;82;21032;-74
2021/01/05 09:42:06;;;;;;;92.33;31.07;;;;;;;-1.10;100.00;99608.98;1732373;82;20898;-74
2021/01/05 09:44:34;;;;;;;89.72;31.42;;;;;;;-1.10;100.00;99608.45;1732418;82;20994;-74
2021/01/05 09:47:02;;;;;;;103.47;33.53;;;;;;;-1.10;100.00;99602.25;1732486;82;21612;-74
2021/01/05 09:49:30;;;;;;;84.45;30.40;;;;;;;-1.07;100.00;99604.46;1732245;82;21187;-73
2021/01/05 09:52:00;;;;;;;88.97;30.55;;;;;;;-1.06;100.00;99599.37;1716725;81;21948;-76
2021/01/05 09:54:28;;;;;;;86.85;29.42;;;;;;;-1.04;100.00;99602.64;1722275;81;20965;-76
2021/01/05 09:56:57;;;;;;;87.40;31.02;;;;;;;-1.04;100.00;99605.33;1715798;82;21025;-76
2021/01/05 09:59:30;;;;;;;88.52;31.00;;;;;;;-1.03;100.00;99597.54;1729359;81;21211;-75
2021/01/05 10:01:58;;;;;;;91.22;31.15;;;;;;;-1.00;100.00;99595.72;1728884;83;26679;-75
2021/01/05 10:04:27;;;;;;;75.65;27.82;;;;;;;-0.97;100.00;99584.46;1691394;82;22132;-75
2021/01/05 10:06:56;;;;;;;80.50;30.52;;;;;;;-0.96;100.00;99582.05;1709086;82;21102;-74
2021/01/05 10:09:23;;;;;;;70.60;28.25;;;;;;;-0.93;100.00;99592.36;1731480;82;21668;-74
2021/01/05 10:11:50;;;;;;;68.85;24.80;;;;;;;-0.91;100.00;99591.59;1732172;82;21123;-75
2021/01/05 10:14:20;;;;;;;65.67;25.77;;;;;;;-0.92;100.00;99592.64;1726048;82;21472;-74
2021/01/05 10:16:53;;;;;;;71.60;26.90;;;;;;;-0.93;100.00;99580.23;1732240;81;21378;-75
2021/01/05 10:19:22;;;;;;;61.88;25.43;;;;;;;-0.94;100.00;99585.33;1707857;82;21147;-75
2021/01/05 10:21:49;;;;;;;64.97;26.30;;;;;;;-0.94;100.00;99582.64;1702751;84;20981;-75
2021/01/05 10:24:17;;;;;;;62.43;25.77;;;;;;;-0.93;100.00;99578.06;1702815;84;21499;-75
2021/01/05 10:26:54;;;;;;;67.70;24.85;;;;;;;-0.92;100.00;99573.78;1702949;84;21063;-74
2021/01/05 10:29:23;;;;;;;58.13;24.00;;;;;;;-0.90;100.00;99574.89;1707232;81;22097;-74
2021/01/05 10:31:51;;;;;;;59.53;23.87;;;;;;;-0.86;100.00;99567.44;1702979;82;21041;-73
2021/01/05 10:34:21;;;;;;;56.75;23.40;;;;;;;-0.87;100.00;99563.63;1703108;82;21063;-74
2021/01/05 10:36:57;;;;;;;51.20;21.35;;;;;;;-0.86;100.00;99555.84;1703377;84;21496;-74
2021/01/05 10:39:26;;;;;;;61.02;23.27;;;;;;;-0.85;100.00;99556.94;1703319;84;21104;-73
2021/01/05 10:41:55;;;;;;;55.28;24.65;;;;;;;-0.86;100.00;99546.40;1703060;84;21307;-74
2021/01/05 10:44:26;;;;;;;57.43;23.00;;;;;;;-0.83;100.00;99545.39;1705916;81;21643;-75
2021/01/05 10:47:02;;;;;;;54.98;20.85;;;;;;;-0.80;100.00;99544.09;1726043;82;21492;-74
2021/01/05 10:49:30;;;;;;;57.55;24.63;;;;;;;-0.78;100.00;99537.40;1715918;82;20981;-73
2021/01/05 10:52:00;;;;;;;49.08;22.48;;;;;;;-0.75;100.00;99538.80;1695803;84;20950;-73
2021/01/05 10:54:28;;;;;;;53.02;23.90;;;;;;;-0.72;100.00;99541.00;1695741;84;21210;-73
2021/01/05 10:57:05;;;;;;;49.15;21.65;;;;;;;-0.71;100.00;99540.77;1695644;84;21092;-73
2021/01/05 10:59:33;;;;;;;50.60;21.95;;;;;;;-0.71;100.00;99532.67;1695734;84;20946;-72
2021/01/05 11:02:02;;;;;;;45.88;20.15;;;;;;;-0.72;100.00;99528.34;1695642;84;21114;-73
2021/01/05 11:04:30;;;;;;;52.70;23.62;;;;;;;-0.70;100.00;99520.02;1695705;84;21191;-73
2021/01/05 11:07:00;;;;;;;59.45;24.55;;;;;;;-0.70;100.00;99518.67;1695683;84;21386;-74
2021/01/05 11:09:28;;;;;;;47.25;21.00;;;;;;;-0.68;100.00;99527.33;1697476;84;20977;-73
2021/01/05 11:12:01;;;;;;;50.38;22.05;;;;;;;-0.63;100.00;99526.60;1697432;84;21008;-72
2021/01/05 11:14:29;;;;;;;62.62;25.12;;;;;;;-0.62;100.00;99516.10;1697486;84;20954;-74
2021/01/05 11:16:56;;;;;;;53.70;21.50;;;;;;;-0.62;100.00;99508.84;1697545;84;21491;-80
2021/01/05 11:19:24;;;;;;;50.03;20.77;;;;;;;-0.58;100.00;99510.52;1697481;84;21395;-80
2021/01/05 11:22:05;;;;;;;56.28;20.90;;;;;;;-0.53;100.00;99513.27;1697455;84;21028;-79
2021/01/05 11:24:35;;;;;;;43.55;20.27;;;;;;;-0.55;100.00;99500.56;1697395;84;21116;-79
2021/01/05 11:27:05;;;;;;;55.33;19.00;;;;;;;-0.58;100.00;99497.03;1697535;84;21550;-78
2021/01/05 11:29:33;;;;;;;55.73;22.17;;;;;;;-0.55;100.00;99495.16;1697439;84;21001;-78
2021/01/05 11:32:07;;;;;;;57.25;23.10;;;;;;;-0.53;100.00;99490.34;1697444;84;21197;-79
2021/01/05 11:34:35;;;;;;;57.53;23.38;;;;;;;-0.55;100.00;99491.13;1697297;84;21104;-83
2021/01/05 11:37:07;;;;;;;59.50;24.60;;;;;;;-0.57;100.00;99493.23;1697530;84;21245;-79
2021/01/05 11:39:37;;;;;;;67.62;24.27;;;;;;;-0.56;100.00;99478.70;1697576;84;20987;-81
2021/01/05 11:42:05;;;;;;;85.87;29.95;;;;;;;-0.53;100.00;99479.56;1716488;81;21089;-82
2021/01/05 11:44:32;;;;;;;68.45;25.72;;;;;;;-0.54;100.00;99471.18;1726331;83;21240;-78